Kellysville, West Virginia
Current Conditions -  °F | °C
As of 1:14 AM on Wednesday 28 Jan 2015 (Local Time) from KBLF Reporting Station
Overcast Overcast  
Wind Chill:   Ceiling: 1400
Heat Index: 18°   Visibility: 10mi
Dew Point: 10°   Wind: 9mph
Humidity: 71%   Direction: 300°WNW
Pressure: 30.04"   Gusts: NA
Location:  37.34°N, 80.93°W
Report Text: KBLF 280614Z AUTO 30008KT 10SM OVC014 M08/M12 A3004 RMK AO2 T10781122
Loading
Personal Weather Stations






























Interactive Weather Map New forecast layout! Learn more

10-Day Weather Forecast

Advertisements
Track Severe Weather on mobile